Terminal Aerodrome Forecast
Issued by NWS Central Illinois

Home | Current Version | Previous Version | Text Only | Print | Product List | Glossary On
Versions: 1 2 3 4 5 6 7 8 9 10 11 12 13 14 15 16 17
000
FTUS43 KILX 012331
TAFSPI
TAF
KSPI 012331Z 0200/0224 06008KT P6SM -SHRA VCTS SCT025CB BKN050
      TEMPO 0200/0203 4SM -RA BR OVC025
     FM020600 06007KT 4SM -SHRA BR VCTS BKN025CB
     FM021400 05010KT P6SM VCSH BKN025
     FM022000 03010KT P6SM SCT025 BKN050=

USA.gov is the U.S. government's official web portal to all federal, state and local government web resources and services.